Startpagina
METAR-TAF:

METAR-TAF

Vliegvelden :

Vliegbasis Koksijde

Koksijde, België

breedte: 51-05N, lengte: 002-39E, hoogte: 4 m

Actueel weer

Dit bericht is 23 minuten geleden gemaakt, om 03:55 UTC
Wind 1 kt uit variabele richting
Temperatuur 8°C
Vochtigheid 100%
Druk 1007 hPa
Zicht: 3200 m
nevel

METAR: EBFN 200355Z AUTO VRB01KT 3200 BR BKN150/// BKN200/// 08/08 Q1007 YLO

Tijdstip: 06:18 (04:18 UTC)

Verwachting

Dit bericht is 12 uur en het 37 minuten geleden gemaakt, om 15:41 UTC
Verwachting geldig van 19 om 19 UTC tot 20 om 07 UTC
Wind 8 kt uit het zuidzuidwesten
Zicht 10 km of meer
Verspreide wolken op 2500 ft
Gebroken wolken op 4000 ft
Kans 30% :
Tijdelijke
van 19 om 19 UTC tot 19 om 22 UTC
Zicht: 6000 m
Gebroken wolken op 2000 ft
lichte regenbuien

TAF: EBFN 191541Z 1919/2007 21008KT 9999 SCT025 BKN040 PROB30 TEMPO 1919/1922 6000 -SHRA BKN020

Waarnemingen en weersverwachtingen van meer dan 4000 vliegvelden (METAR en TAF).

De beschikbare stations zijn de gele en rode punten op de kaart.

Ga met uw muis naar het station om de naam te zien.

Klik dan om waarnemingen en weersverwachtingen te zien.

kaart wijzigen: klik op de groene knoppen met een zwart kruis om in te zoomen, op de groene knop met een streepje om uit te zoomen of op de groene pijlen voor aangrenzende kaarten.


METAR-TAF: